Airfield :
LOGIN :

Register | Disclaimer

   EN    FR    IT 

 










Legend :    VFR   Marginal VFR   IFR   Intensive IFR   Very Intensive IFR
Visi :
Ceiling :
>= 8 km
>= 3000ft
5 to 8 km
1000 to 3000 ft
1500m to 5 km
500 to 1000 ft
800 to 1500m
200 to 500 ft
< 800m
< 200 ft
Symbols :   Thunderstorms  Fog  Heavy snow  Heavy precipitations  Wind > 20 kt
SIGMETs :     Misc.  Thunderstorms  Icing  Turbulence  Mountain Waves  Volcanic Ashes






- Airport Elevation : 885 ft
- IATA code : BAS


LFSB - Bale-Mulhouse

CURRENT METAR :
  • 291000Z AUTO VRB02KT 9999 SCT012 BKN060 BKN072 11/09 Q1003 TEMPO SHRA FEW030TCU

EXPIRED METARs :
  • 290930Z AUTO VRB03KT 9999 -RA BKN010 BKN050 BKN076 11/09 Q1003 TEMPO SHRA FEW030TCU
  • 290900Z AUTO 17003KT 9999 -RA FEW010/// BKN070/// OVC088/// ///TCU 11/09 Q1002 TEMPO 4500 -RADZ BKN008 FEW030TCU
  • 290830Z AUTO VRB03KT 9999 -RA FEW010 BKN023 BKN056 11/09 Q1002 TEMPO 4500 -RADZ FEW030TCU
  • 290800Z AUTO 20003KT 160V220 9999 -RA BKN008 OVC014 10/09 Q1002 TEMPO SHRA FEW030TCU
  • 290730Z AUTO VRB02KT 9999 -DZ FEW008 BKN013 BKN047 10/09 Q1002 TEMPO SHRA FEW030TCU

TAF AMD TAF LFSB
Valid from the 29 at 08:00 until the 30 at 06:00 UTC


290815Z 2908/3006 VRB04KT 9999 FEW008 BKN045
TEMPO 2908/2910 4500 -RADZ BKN008 FEW030TCU
TEMPO 2910/3003 SHRA FEW030TCU
BECMG 3003/3006 4000 BR BKN008
Met : +33 3 89 90 31 11



MET'MAP, your aeronautical weather chart ! - Copyright ORBIFLY December 2007 - Disclaimer

ORBIFLY MET'MAP TEAM :

Programming & Development : Alexandra Zaïnal
Original concept : Baudouin d'Aumeries
Technical & hardware support : Manuel Goepfert
Assistance : Marc-Olivier Méhu




SOURCES & CREDITS :

   NOAA